Time;durP1;ratioP1;P1;durP2;ratioP2;P2;SDS_P1;SDS_P2;PMS_P1;PMS_P2;Temp;Humidity;BMP_temperature;BMP_pressure;BME280_temperature;BME280_humidity;BME280_pressure;Samples;Min_cycle;Max_cycle;Signal;HPM_P1;HPM_P2
2022/02/19 00:01:32;;;;;;;;;0.50;0.00;;;;;10.77;47.45;101232.13;5075090;27;45442;-80
2022/02/19 00:03:57;;;;;;;;;0.00;0.00;;;;;10.72;46.92;101233.09;5072294;28;46124;-80
2022/02/19 00:06:23;;;;;;;;;0.00;0.00;;;;;10.79;47.48;101238.28;5075262;28;45415;-80
2022/02/19 00:08:48;;;;;;;;;0.25;0.25;;;;;10.75;47.49;101237.50;5071896;28;47210;-80
2022/02/19 00:11:13;;;;;;;;;0.00;0.00;;;;;10.80;47.32;101238.25;5090735;27;46108;-80
2022/02/19 00:13:39;;;;;;;;;0.00;0.00;;;;;10.73;47.37;101234.00;5072481;28;46077;-80
2022/02/19 00:16:05;;;;;;;;;0.00;0.00;;;;;10.82;47.71;101254.25;5069341;28;45680;-80
2022/02/19 00:18:32;;;;;;;;;0.75;0.00;;;;;10.72;47.63;101237.56;5072883;28;45461;-80
2022/02/19 00:20:57;;;;;;;;;0.25;0.00;;;;;10.79;47.77;101257.00;5074417;27;45435;-80
2022/02/19 00:23:26;;;;;;;;;0.25;0.00;;;;;10.73;47.43;101258.91;5072718;27;46080;-80
2022/02/19 00:25:51;;;;;;;;;2.75;0.00;;;;;10.82;47.94;101278.28;5076077;27;45437;-80
2022/02/19 00:28:17;;;;;;;;;0.75;0.75;;;;;10.78;47.60;101269.47;5060136;28;45264;-80
2022/02/19 00:30:42;;;;;;;;;1.00;0.00;;;;;10.71;48.00;101260.75;5059262;28;46963;-80
2022/02/19 00:33:07;;;;;;;;;2.75;0.25;;;;;10.59;47.63;101244.13;5060459;28;45299;-80
2022/02/19 00:35:33;;;;;;;;;0.75;0.00;;;;;10.73;47.63;101266.03;5060624;28;45433;-80
2022/02/19 00:37:58;;;;;;;;;0.00;0.00;;;;;10.67;48.09;101269.72;5073518;28;45606;-80
2022/02/19 00:40:23;;;;;;;;;0.00;0.00;;;;;10.77;47.92;101285.53;5057746;28;45611;-80
2022/02/19 00:42:49;;;;;;;;;2.50;0.00;;;;;10.66;48.08;101270.66;5059589;28;47126;-80
2022/02/19 00:45:14;;;;;;;;;0.00;0.00;;;;;10.69;47.74;101277.69;5059909;28;45417;-80
2022/02/19 00:47:39;;;;;;;;;1.00;0.00;;;;;10.65;47.89;101265.34;5074936;28;45242;-80
2022/02/19 00:50:06;;;;;;;;;2.50;0.25;;;;;10.51;48.19;101255.00;5060589;28;45626;-80
2022/02/19 00:52:31;;;;;;;;;0.00;0.00;;;;;10.63;47.77;101285.88;5059417;28;45859;-79
2022/02/19 00:54:56;;;;;;;;;0.00;0.00;;;;;10.62;47.58;101287.66;5060213;28;45489;-79
2022/02/19 00:57:22;;;;;;;;;0.50;0.00;;;;;10.60;47.53;101291.28;5060817;28;45418;-79
2022/02/19 00:59:47;;;;;;;;;0.50;0.00;;;;;10.65;48.23;101306.25;5060764;28;45841;-80
2022/02/19 01:02:12;;;;;;;;;1.00;0.00;;;;;10.63;48.18;101297.41;5055310;28;45470;-80
2022/02/19 01:04:38;;;;;;;;;0.00;0.00;;;;;10.63;47.32;101297.41;5053737;28;45358;-80
2022/02/19 01:07:03;;;;;;;;;0.00;0.00;;;;;10.60;47.76;101304.63;5056345;28;45414;-80
2022/02/19 01:09:29;;;;;;;;;0.50;0.00;;;;;10.54;47.54;101297.63;5060287;28;45642;-79
2022/02/19 01:11:54;;;;;;;;;0.00;0.00;;;;;10.57;47.51;101314.47;5057135;28;46103;-80
2022/02/19 01:14:20;;;;;;;;;2.50;0.25;;;;;10.61;47.94;101320.63;5057373;28;45725;-79
2022/02/19 01:16:45;;;;;;;;;0.00;0.00;;;;;10.57;47.93;101306.47;5060387;28;45431;-79
2022/02/19 01:19:11;;;;;;;;;0.75;0.00;;;;;10.55;47.59;101320.75;5059022;28;45480;-80
2022/02/19 01:21:36;;;;;;;;;1.00;0.00;;;;;10.51;47.70;101319.06;5059255;28;45515;-80
2022/02/19 01:24:02;;;;;;;;;3.50;1.00;;;;;10.50;48.15;101320.84;5058408;28;45423;-80
2022/02/19 01:26:28;;;;;;;;;1.25;1.00;;;;;10.44;48.25;101312.09;5059940;28;45409;-80
2022/02/19 01:28:53;;;;;;;;;0.00;0.00;;;;;10.42;47.84;101317.47;5059144;28;45571;-80
2022/02/19 01:31:19;;;;;;;;;0.00;0.00;;;;;10.50;47.97;101323.50;5060515;28;45414;-80
2022/02/19 01:33:44;;;;;;;;;1.00;0.00;;;;;10.39;48.24;101301.56;5059303;28;46637;-80
2022/02/19 01:36:09;;;;;;;;;1.75;0.75;;;;;10.40;48.04;101321.09;5054684;28;45389;-79
2022/02/19 01:38:34;;;;;;;;;1.00;0.00;;;;;10.44;48.54;101321.00;5052830;28;45429;-79
2022/02/19 01:41:00;;;;;;;;;1.00;1.00;;;;;10.44;48.52;101329.00;5071452;28;47034;-79
2022/02/19 01:43:25;;;;;;;;;1.00;0.25;;;;;10.45;48.59;101321.88;5059989;28;45457;-79
2022/02/19 01:45:51;;;;;;;;;2.00;0.00;;;;;10.42;48.16;101322.81;5059290;28;45410;-80
2022/02/19 01:48:16;;;;;;;;;0.00;0.00;;;;;10.42;48.28;101324.59;5058559;28;45276;-79
2022/02/19 01:50:42;;;;;;;;;1.00;0.00;;;;;10.51;48.22;101327.94;5058701;28;46403;-79
2022/02/19 01:53:09;;;;;;;;;1.00;0.00;;;;;10.51;48.49;101329.75;5058228;28;45804;-79
2022/02/19 01:55:35;;;;;;;;;1.75;0.00;;;;;10.46;48.76;101328.97;5059088;28;45411;-79
2022/02/19 01:58:02;;;;;;;;;3.00;0.00;;;;;10.46;48.50;101328.97;5059229;28;45449;-79
2022/02/19 02:00:29;;;;;;;;;1.25;1.00;;;;;10.51;48.25;101337.75;5058196;28;46648;-80
2022/02/19 02:02:56;;;;;;;;;0.00;0.00;;;;;10.51;48.41;101345.78;5058871;28;45466;-80
2022/02/19 02:05:22;;;;;;;;;1.50;0.00;;;;;10.51;48.94;101351.09;5051475;28;45237;-80
2022/02/19 02:07:48;;;;;;;;;0.00;0.00;;;;;10.49;48.99;101351.13;5056878;28;45160;-80
2022/02/19 02:10:14;;;;;;;;;1.00;0.00;;;;;10.47;48.75;101347.59;5056845;28;46144;-79
2022/02/19 02:12:40;;;;;;;;;0.00;0.00;;;;;10.39;48.89;101338.91;5057443;28;45541;-79
2022/02/19 02:15:22;;;;;;;;;0.75;0.50;;;;;10.46;49.16;101358.34;5059151;28;46088;-80
2022/02/19 02:17:48;;;;;;;;;1.75;1.00;;;;;10.44;49.21;101350.38;5074752;28;45865;-80
2022/02/19 02:20:13;;;;;;;;;1.00;0.00;;;;;10.46;49.13;101353.00;5057770;28;48146;-79
2022/02/19 02:22:38;;;;;;;;;1.50;0.00;;;;;10.34;48.99;101330.09;5058736;28;45495;-79
2022/02/19 02:25:10;;;;;;;;;1.50;0.00;;;;;10.45;49.12;101353.91;5057642;28;45364;-79
2022/02/19 02:27:36;;;;;;;;;0.50;0.00;;;;;10.46;48.96;101347.66;5055498;28;45227;-79
2022/02/19 02:30:03;;;;;;;;;0.00;0.00;;;;;10.36;49.30;101338.97;5055345;28;46496;-80
2022/02/19 02:32:29;;;;;;;;;0.75;0.00;;;;;10.44;49.16;101352.13;5059532;28;45638;-79
2022/02/19 02:34:55;;;;;;;;;0.75;0.00;;;;;10.42;48.93;101354.84;5058804;28;46910;-79
2022/02/19 02:37:21;;;;;;;;;1.50;0.00;;;;;10.38;48.98;101345.16;5074402;28;45479;-79
2022/02/19 02:39:48;;;;;;;;;2.75;0.00;;;;;10.35;49.19;101340.75;5058928;28;47104;-79
2022/02/19 02:42:15;;;;;;;;;0.75;0.00;;;;;10.40;49.46;101348.66;5064800;28;45415;-79
2022/02/19 02:44:41;;;;;;;;;0.00;0.00;;;;;10.40;48.91;101340.66;5061085;28;45210;-79
2022/02/19 02:47:07;;;;;;;;;1.00;0.00;;;;;10.42;49.08;101345.97;5064486;28;45475;-79
2022/02/19 02:49:33;;;;;;;;;0.25;0.25;;;;;10.35;49.19;101330.06;5066364;28;46289;-79
2022/02/19 02:51:58;;;;;;;;;0.00;0.00;;;;;10.36;49.06;101337.19;5062921;27;45556;-79
2022/02/19 02:54:23;;;;;;;;;1.25;0.00;;;;;10.41;49.18;101350.44;5057829;28;45389;-79
2022/02/19 02:56:49;;;;;;;;;2.75;0.00;;;;;10.41;49.73;101362.88;5058462;28;45381;-80
2022/02/19 02:59:14;;;;;;;;;0.50;0.50;;;;;10.42;49.45;101357.50;5057475;28;46107;-79
2022/02/19 03:01:39;;;;;;;;;0.00;0.00;;;;;10.41;49.78;101354.88;5058159;28;45479;-79
2022/02/19 03:04:05;;;;;;;;;0.00;0.00;;;;;10.41;49.76;101355.75;5056869;28;45453;-79
2022/02/19 03:06:30;;;;;;;;;0.00;0.00;;;;;10.43;49.62;101353.06;5057161;28;45314;-80
2022/02/19 03:08:56;;;;;;;;;1.00;0.00;;;;;10.37;49.68;101356.72;5059122;28;46378;-79
2022/02/19 03:11:21;;;;;;;;;1.25;0.00;;;;;10.26;50.12;101340.94;5057288;28;45464;-79
2022/02/19 03:13:47;;;;;;;;;0.00;0.00;;;;;10.31;49.94;101357.72;5057663;28;46095;-79
2022/02/19 03:16:13;;;;;;;;;0.00;0.00;;;;;10.30;49.78;101361.28;5058193;28;45574;-79
2022/02/19 03:18:39;;;;;;;;;0.50;0.25;;;;;10.32;49.94;101353.28;5052881;28;45468;-79
2022/02/19 03:21:04;;;;;;;;;1.00;0.00;;;;;10.29;49.71;101359.53;5057145;28;45603;-79
2022/02/19 03:23:29;;;;;;;;;3.00;0.50;;;;;10.26;49.84;101356.06;5056751;28;45495;-79
2022/02/19 03:25:55;;;;;;;;;0.25;0.25;;;;;10.36;49.94;101379.00;5057982;28;45429;-79
2022/02/19 03:28:20;;;;;;;;;0.50;0.00;;;;;10.34;49.47;101376.38;5054828;28;46079;-79
2022/02/19 03:30:45;;;;;;;;;0.00;0.00;;;;;10.33;49.51;101379.06;5054651;28;45440;-78
2022/02/19 03:33:11;;;;;;;;;1.00;0.00;;;;;10.34;49.40;101386.16;5058115;28;45362;-79
2022/02/19 03:35:36;;;;;;;;;0.00;0.00;;;;;10.33;49.88;101382.59;5057855;28;45204;-79
2022/02/19 03:38:02;;;;;;;;;0.25;0.00;;;;;10.29;49.89;101380.00;5055227;28;46372;-79
2022/02/19 03:40:27;;;;;;;;;0.00;0.00;;;;;10.20;49.64;101375.72;5057281;28;45358;-79
2022/02/19 03:42:52;;;;;;;;;0.00;0.00;;;;;10.03;49.96;101346.75;5058201;28;45239;-79
2022/02/19 03:45:18;;;;;;;;;1.00;0.00;;;;;10.26;49.75;101390.75;5057358;28;45599;-79
2022/02/19 03:47:44;;;;;;;;;1.50;0.00;;;;;10.18;49.56;101377.56;5057053;28;46025;-79
2022/02/19 03:50:11;;;;;;;;;0.50;0.00;;;;;10.23;50.08;101391.69;5057201;28;45487;-79
2022/02/19 03:52:37;;;;;;;;;2.00;1.00;;;;;10.17;50.26;101381.13;5056564;28;45458;-79
2022/02/19 03:55:04;;;;;;;;;1.25;0.00;;;;;10.19;50.18;101390.00;5056652;28;45754;-79
2022/02/19 03:57:29;;;;;;;;;0.00;0.00;;;;;10.15;50.12;101404.28;5055550;28;45787;-79
2022/02/19 03:59:55;;;;;;;;;1.00;0.00;;;;;10.09;50.20;101394.66;5057379;28;45451;-78
2022/02/19 04:02:20;;;;;;;;;2.00;1.00;;;;;10.15;50.31;101404.28;5061281;28;46612;-79
2022/02/19 04:04:45;;;;;;;;;2.50;0.50;;;;;10.15;50.17;101404.28;5060113;28;45456;-79
2022/02/19 04:07:11;;;;;;;;;0.50;0.00;;;;;9.97;50.16;101384.19;5061176;28;45595;-79
2022/02/19 04:09:36;;;;;;;;;0.00;0.00;;;;;10.01;50.72;101401.91;5057803;28;45381;-79
2022/02/19 04:12:02;;;;;;;;;0.00;0.00;;;;;9.95;50.22;101389.56;5060548;28;45479;-79
2022/02/19 04:14:28;;;;;;;;;1.00;0.00;;;;;10.00;50.02;101408.16;5058643;28;45339;-79
2022/02/19 04:16:54;;;;;;;;;0.00;0.00;;;;;10.04;50.60;101416.97;5060795;28;45406;-78
2022/02/19 04:19:19;;;;;;;;;0.25;0.00;;;;;10.00;50.62;101411.69;5059628;28;45401;-78
2022/02/19 04:21:45;;;;;;;;;1.50;0.75;;;;;9.79;50.19;101378.31;5060838;28;45441;-74
2022/02/19 04:24:10;;;;;;;;;0.00;0.00;;;;;10.09;49.93;101423.09;5057997;28;45615;-80
2022/02/19 04:26:36;;;;;;;;;0.50;0.50;;;;;10.07;50.04;101427.56;5059687;28;45445;-79
2022/02/19 04:29:01;;;;;;;;;0.00;0.00;;;;;9.95;50.22;101418.91;5057617;28;45543;-79
2022/02/19 04:31:27;;;;;;;;;1.00;0.00;;;;;9.99;50.50;101439.28;5060080;28;45370;-79
2022/02/19 04:33:52;;;;;;;;;1.00;0.00;;;;;9.99;50.28;101441.94;5060292;28;46637;-79
2022/02/19 04:36:17;;;;;;;;;0.00;0.00;;;;;9.93;50.46;101438.53;5059820;28;45484;-79
2022/02/19 04:38:43;;;;;;;;;1.00;0.00;;;;;9.92;50.67;101437.66;5058468;28;45249;-79
2022/02/19 04:41:08;;;;;;;;;0.75;0.00;;;;;9.96;50.47;101452.66;5060611;28;45436;-79
2022/02/19 04:43:34;;;;;;;;;0.00;0.00;;;;;9.98;50.17;101457.97;5059107;28;45511;-79
2022/02/19 04:45:59;;;;;;;;;0.00;0.00;;;;;9.95;50.17;101461.56;5059682;28;45294;-79
2022/02/19 04:48:24;;;;;;;;;0.00;0.00;;;;;9.89;50.55;101448.38;5056041;28;45634;-79
2022/02/19 04:50:50;;;;;;;;;1.00;1.00;;;;;9.91;50.23;101459.88;5059531;28;45699;-79
2022/02/19 04:53:15;;;;;;;;;0.00;0.00;;;;;9.95;50.31;101474.03;5058108;28;45601;-79
2022/02/19 04:55:41;;;;;;;;;0.00;0.00;;;;;9.85;50.38;101462.66;5057716;28;47229;-79
2022/02/19 04:58:06;;;;;;;;;1.75;0.00;;;;;9.88;50.16;101475.06;5053992;28;45557;-80
2022/02/19 05:00:32;;;;;;;;;0.00;0.00;;;;;9.90;50.76;101482.09;5057927;28;45449;-82
2022/02/19 05:02:57;;;;;;;;;0.00;0.00;;;;;9.80;50.87;101460.06;5057997;28;45530;-80
2022/02/19 05:05:22;;;;;;;;;0.75;0.00;;;;;9.92;50.32;101485.66;5059451;28;45523;-79
2022/02/19 05:07:48;;;;;;;;;0.00;0.00;;;;;9.82;50.49;101476.03;5059435;28;45464;-79
2022/02/19 05:10:13;;;;;;;;;0.00;0.00;;;;;9.85;50.43;101483.09;5057569;28;45516;-79
2022/02/19 05:12:41;;;;;;;;;0.00;0.00;;;;;9.81;50.47;101477.81;5059710;28;45488;-79
2022/02/19 05:15:11;;;;;;;;;0.25;0.00;;;;;9.90;50.28;101492.78;5057488;28;47170;-79
2022/02/19 05:17:47;;;;;;;;;1.00;0.00;;;;;9.81;50.38;101477.81;5058821;28;45455;-79
2022/02/19 05:20:13;;;;;;;;;0.00;0.00;;;;;9.82;50.26;101481.34;5059715;28;45402;-79
2022/02/19 05:22:39;;;;;;;;;0.00;0.00;;;;;9.86;50.62;101501.75;5058264;28;45545;-80
2022/02/19 05:25:05;;;;;;;;;0.00;0.00;;;;;9.82;50.51;101494.69;5058254;28;45816;-79
2022/02/19 05:27:31;;;;;;;;;0.00;0.00;;;;;9.73;50.84;101495.75;5059415;28;46531;-79
2022/02/19 05:29:56;;;;;;;;;1.00;0.00;;;;;9.73;50.58;101497.53;5060100;28;45397;-79
2022/02/19 05:32:21;;;;;;;;;0.00;0.00;;;;;9.77;50.47;101509.88;5060819;28;45629;-79
2022/02/19 05:34:50;;;;;;;;;0.25;0.00;;;;;9.74;50.78;101504.59;5059273;28;45995;-79
2022/02/19 05:37:15;;;;;;;;;1.00;0.00;;;;;9.67;51.11;101493.16;5057816;28;45508;-80
2022/02/19 05:39:41;;;;;;;;;0.50;0.00;;;;;9.64;50.83;101499.44;5056838;28;46700;-79
2022/02/19 05:42:06;;;;;;;;;0.75;0.75;;;;;9.66;50.85;101502.09;5056366;28;45764;-79
2022/02/19 05:44:32;;;;;;;;;2.00;0.00;;;;;9.58;50.80;101480.88;5056826;28;45316;-79
2022/02/19 05:46:57;;;;;;;;;2.50;0.00;;;;;9.37;51.34;101460.81;5065042;27;45461;-79
2022/02/19 05:49:22;;;;;;;;;2.75;0.00;;;;;9.57;50.97;101488.91;5056238;28;45916;-79
2022/02/19 05:51:48;;;;;;;;;1.00;1.00;;;;;9.64;50.84;101511.91;5059046;28;45564;-79
2022/02/19 05:54:13;;;;;;;;;0.00;0.00;;;;;9.57;51.16;101496.88;5058587;28;45434;-80
2022/02/19 05:56:38;;;;;;;;;2.00;0.50;;;;;9.66;51.30;101503.88;5058089;28;45332;-79
2022/02/19 05:59:04;;;;;;;;;1.00;1.00;;;;;9.66;51.11;101509.22;5062880;28;45403;-79
2022/02/19 06:01:30;;;;;;;;;0.00;0.00;;;;;9.58;50.76;101504.88;5061138;28;45456;-79
2022/02/19 06:03:55;;;;;;;;;1.25;0.00;;;;;9.57;51.08;101499.56;5059170;27;47601;-79
2022/02/19 06:06:21;;;;;;;;;3.00;0.25;;;;;9.59;50.86;101509.31;5083029;27;45566;-79
2022/02/19 06:08:46;;;;;;;;;0.00;0.00;;;;;9.58;51.38;101502.19;5066509;27;45748;-79
2022/02/19 06:11:12;;;;;;;;;0.00;0.00;;;;;9.56;50.99;101497.81;5068757;28;45469;-79
2022/02/19 06:13:37;;;;;;;;;1.00;1.00;;;;;9.57;51.07;101491.56;5066130;28;45483;-79
2022/02/19 06:16:03;;;;;;;;;4.00;0.00;;;;;9.66;51.18;101506.56;5065860;28;45333;-79
2022/02/19 06:18:28;;;;;;;;;4.00;1.00;;;;;9.38;51.33;101464.34;5059302;28;45436;-79
2022/02/19 06:20:53;;;;;;;;;1.75;0.00;;;;;9.57;51.22;101504.88;5059124;28;45645;-79
2022/02/19 06:23:19;;;;;;;;;0.00;0.00;;;;;9.63;50.94;101523.47;5052974;28;45421;-79
2022/02/19 06:25:44;;;;;;;;;1.00;1.00;;;;;9.54;51.12;101507.59;5054978;28;45481;-79
2022/02/19 06:28:09;;;;;;;;;2.00;1.00;;;;;9.54;51.84;101510.25;5058000;28;45412;-79
2022/02/19 06:30:35;;;;;;;;;1.50;0.50;;;;;9.54;50.90;101511.16;5058400;28;45237;-79
2022/02/19 06:33:01;;;;;;;;;1.00;0.00;;;;;9.52;51.40;101512.97;5052686;28;46242;-79
2022/02/19 06:35:27;;;;;;;;;0.25;0.25;;;;;9.57;51.26;101527.13;5057726;28;45621;-79
2022/02/19 06:37:52;;;;;;;;;0.50;0.50;;;;;9.53;51.24;101525.38;5072611;28;45560;-79
2022/02/19 06:40:18;;;;;;;;;0.00;0.00;;;;;9.48;51.45;101527.25;5057702;28;45567;-78
2022/02/19 06:42:44;;;;;;;;;1.25;0.00;;;;;9.52;51.42;101530.72;5058872;28;46333;-79
2022/02/19 06:45:10;;;;;;;;;2.75;1.00;;;;;9.50;51.26;101537.88;5054948;28;45587;-79
2022/02/19 06:47:36;;;;;;;;;0.00;0.00;;;;;9.45;51.04;101536.19;5056085;28;45365;-80
2022/02/19 06:50:06;;;;;;;;;1.00;0.00;;;;;9.48;51.37;101551.22;5057991;28;45425;-79
2022/02/19 06:52:32;;;;;;;;;1.50;1.00;;;;;9.46;51.56;101556.56;5056903;28;46684;-82
2022/02/19 06:54:57;;;;;;;;;1.00;0.00;;;;;9.45;51.38;101553.94;5056972;28;45508;-80
2022/02/19 06:57:23;;;;;;;;;2.75;0.00;;;;;9.44;51.49;101558.38;5058062;28;46058;-80
2022/02/19 06:59:50;;;;;;;;;3.00;1.50;;;;;9.37;51.64;101556.72;5056063;28;45670;-79
2022/02/19 07:02:16;;;;;;;;;0.00;0.00;;;;;9.39;51.25;101568.25;5054578;28;45950;-80
2022/02/19 07:04:41;;;;;;;;;0.75;0.00;;;;;9.40;51.52;101580.63;5058448;28;45465;-80
2022/02/19 07:07:07;;;;;;;;;1.00;1.00;;;;;9.37;51.30;101579.81;5056203;28;45425;-80
2022/02/19 07:09:32;;;;;;;;;0.25;0.25;;;;;9.33;51.60;101575.44;5057558;28;45410;-80
2022/02/19 07:11:58;;;;;;;;;0.00;0.00;;;;;9.37;51.69;101585.13;5057895;28;46159;-80
2022/02/19 07:14:24;;;;;;;;;1.75;1.50;;;;;9.30;51.37;101567.47;5057588;28;45491;-80
2022/02/19 07:16:49;;;;;;;;;2.25;0.00;;;;;9.32;51.74;101576.31;5054656;28;45311;-79
2022/02/19 07:19:16;;;;;;;;;0.00;0.00;;;;;9.32;51.94;101576.31;5054979;28;45394;-72
2022/02/19 07:21:41;;;;;;;;;3.00;0.00;;;;;9.38;51.24;101593.09;5070517;28;47691;-75
2022/02/19 07:24:07;;;;;;;;;0.00;0.00;;;;;9.29;51.63;101574.59;5051820;28;45679;-78
2022/02/19 07:26:32;;;;;;;;;3.75;0.75;;;;;9.36;51.75;101586.94;5057020;28;45515;-79
2022/02/19 07:28:58;;;;;;;;;0.00;0.00;;;;;9.35;51.50;101595.81;5052757;28;45784;-79
2022/02/19 07:31:24;;;;;;;;;5.50;1.00;;;;;9.30;51.71;101589.66;5056031;28;45460;-79
2022/02/19 07:33:49;;;;;;;;;1.00;1.00;;;;;9.33;51.81;101608.28;5058266;28;45441;-79
2022/02/19 07:36:15;;;;;;;;;2.00;1.00;;;;;9.26;51.71;101591.50;5061095;28;45428;-79
2022/02/19 07:38:40;;;;;;;;;0.00;0.00;;;;;9.23;51.93;101594.19;5060413;28;45519;-80
2022/02/19 07:41:06;;;;;;;;;1.50;0.00;;;;;9.23;51.56;101601.31;5058393;28;45510;-79
2022/02/19 07:43:31;;;;;;;;;2.75;1.00;;;;;9.21;51.47;101601.34;5059172;28;45319;-72
2022/02/19 07:45:58;;;;;;;;;2.00;1.00;;;;;9.19;51.81;101596.94;5076667;28;47325;-69
2022/02/19 07:48:24;;;;;;;;;0.50;0.50;;;;;9.28;52.12;101615.47;5060976;28;45466;-71
2022/02/19 07:59:01;;;;;;;;;2.75;0.00;;;;;9.21;51.60;101627.09;5061561;28;45369;-69
2022/02/19 08:01:26;;;;;;;;;1.25;0.25;;;;;9.18;52.18;101627.13;5058298;28;48636;-69
2022/02/19 08:03:52;;;;;;;;;2.00;1.00;;;;;9.17;52.32;101639.59;5059398;28;45459;-70
2022/02/19 08:06:17;;;;;;;;;1.00;1.00;;;;;9.21;51.77;101629.78;5061050;28;45383;-69
2022/02/19 08:08:42;;;;;;;;;1.00;1.00;;;;;9.09;52.46;101617.47;5076174;28;45885;-69
2022/02/19 08:11:08;;;;;;;;;2.25;0.00;;;;;9.24;52.31;101641.25;5062054;28;45378;-69
2022/02/19 08:13:33;;;;;;;;;2.50;1.00;;;;;9.22;52.10;101647.50;5060065;28;45508;-72
2022/02/19 08:15:58;;;;;;;;;1.75;0.00;;;;;9.19;52.04;101627.13;5061442;28;45310;-72
2022/02/19 08:18:24;;;;;;;;;0.50;0.25;;;;;9.30;51.86;101653.59;5061183;28;45451;-72
2022/02/19 08:20:51;;;;;;;;;2.50;0.00;;;;;9.26;51.90;101652.78;5051043;28;47248;-72
2022/02/19 08:23:19;;;;;;;;;0.00;0.00;;;;;9.02;52.19;101611.34;5058020;28;45968;-72
2022/02/19 08:25:46;;;;;;;;;0.75;0.00;;;;;9.27;52.13;101657.22;5073637;28;45425;-72
2022/02/19 08:28:11;;;;;;;;;1.00;0.00;;;;;9.11;52.10;101617.47;5064116;27;45797;-71
2022/02/19 08:30:39;;;;;;;;;2.00;1.00;;;;;9.11;52.29;101620.13;5072226;28;47972;-73
2022/02/19 08:33:05;;;;;;;;;0.00;0.00;;;;;9.23;52.41;101639.47;5050281;28;45631;-72
2022/02/19 08:35:31;;;;;;;;;1.00;0.00;;;;;9.25;52.83;101648.38;5060699;28;45324;-72
2022/02/19 08:37:57;;;;;;;;;0.00;0.00;;;;;9.28;52.34;101656.28;5059126;28;45351;-73
2022/02/19 08:40:22;;;;;;;;;0.25;0.25;;;;;9.22;52.55;101648.41;5060150;28;45358;-72
2022/02/19 08:42:48;;;;;;;;;2.00;0.00;;;;;9.19;52.70;101628.91;5076003;27;45362;-74
2022/02/19 08:45:18;;;;;;;;;2.25;1.75;;;;;9.19;52.46;101637.78;5057828;28;45477;-74
2022/02/19 08:47:44;;;;;;;;;1.50;1.00;;;;;9.31;52.23;101660.72;5060899;28;45375;-76
2022/02/19 08:50:11;;;;;;;;;2.50;1.00;;;;;9.24;52.21;101651.91;5068307;28;47557;-74
2022/02/19 08:52:41;;;;;;;;;0.00;0.00;;;;;9.26;52.11;101649.25;5057455;28;45829;-74
2022/02/19 08:55:09;;;;;;;;;2.00;1.00;;;;;9.21;52.63;101640.41;5051040;28;45526;-74
2022/02/19 08:57:35;;;;;;;;;0.50;0.25;;;;;9.27;52.68;101650.97;5058655;28;45860;-74
2022/02/19 09:00:00;;;;;;;;;1.00;0.00;;;;;9.33;52.55;101658.91;5059236;28;45360;-74
2022/02/19 09:02:25;;;;;;;;;0.50;0.00;;;;;9.37;52.62;101665.97;5056772;28;45676;-73
2022/02/19 09:04:51;;;;;;;;;0.75;0.00;;;;;9.39;52.52;101673.97;5053582;28;45447;-74
2022/02/19 09:07:17;;;;;;;;;0.00;0.00;;;;;9.39;52.36;101663.28;5059274;28;45445;-74
2022/02/19 09:09:43;;;;;;;;;2.50;0.00;;;;;9.37;52.41;101668.66;5044887;28;45391;-75
2022/02/19 09:12:10;;;;;;;;;3.25;0.50;;;;;9.43;52.27;101665.00;5054259;28;45524;-80
2022/02/19 09:14:35;;;;;;;;;1.00;1.00;;;;;9.49;52.33;101682.69;5059537;28;45556;-69
2022/02/19 09:17:01;;;;;;;;;2.00;0.50;;;;;9.55;52.38;101698.63;5060689;28;45374;-69
2022/02/19 09:19:28;;;;;;;;;3.00;1.00;;;;;9.41;52.21;101666.81;5060735;28;45533;-68
2022/02/19 09:21:54;;;;;;;;;0.00;0.00;;;;;9.47;52.08;101677.38;5059651;28;45824;-71
2022/02/19 09:24:19;;;;;;;;;1.75;0.00;;;;;9.56;52.04;101679.94;5055547;28;45561;-70
2022/02/19 09:26:45;;;;;;;;;1.50;1.00;;;;;9.66;52.13;101696.69;5059630;28;45393;-70
2022/02/19 09:29:10;;;;;;;;;1.00;0.00;;;;;9.55;51.95;101666.63;5059917;28;45467;-70
2022/02/19 09:31:36;;;;;;;;;1.00;0.00;;;;;9.66;52.06;101671.84;5060572;28;45367;-70
2022/02/19 09:34:01;;;;;;;;;1.50;0.75;;;;;9.69;52.14;101671.75;5060465;28;45422;-70
2022/02/19 09:36:27;;;;;;;;;2.25;0.00;;;;;9.69;52.30;101664.66;5057430;28;45975;-71
2022/02/19 09:38:52;;;;;;;;;4.00;0.75;;;;;9.74;52.22;101680.56;5061405;28;47511;-70
2022/02/19 09:41:17;;;;;;;;;1.00;0.00;;;;;9.49;51.98;101624.97;5063603;28;45385;-70
2022/02/19 09:43:43;;;;;;;;;2.75;1.50;;;;;9.66;52.20;101650.50;5059786;28;45235;-70
2022/02/19 09:46:09;;;;;;;;;1.00;1.00;;;;;9.72;51.92;101659.31;5059842;28;45503;-70
2022/02/19 09:48:35;;;;;;;;;0.25;0.00;;;;;9.78;52.15;101663.66;5057276;28;46387;-70
2022/02/19 09:51:01;;;;;;;;;1.50;0.50;;;;;9.78;51.99;101655.66;5059990;28;45698;-72
2022/02/19 09:53:28;;;;;;;;;2.00;0.00;;;;;9.85;51.78;101657.31;5060539;28;45348;-73
2022/02/19 09:55:54;;;;;;;;;0.00;0.00;;;;;9.91;51.69;101667.03;5060552;28;45334;-72
2022/02/19 09:58:19;;;;;;;;;2.00;1.50;;;;;9.86;52.38;101650.22;5058818;28;45363;-68
2022/02/19 10:00:46;;;;;;;;;3.25;0.25;;;;;9.88;52.21;101653.72;5060220;28;45294;-67
2022/02/19 10:03:21;;;;;;;;;3.00;2.25;;;;;10.00;52.45;101670.41;5073862;27;45358;-69
2022/02/19 10:05:47;;;;;;;;;2.75;1.00;;;;;10.04;51.73;101673.94;5057390;28;45264;-68
2022/02/19 10:08:13;;;;;;;;;1.00;1.00;;;;;10.06;51.98;101673.91;5060604;28;45714;-68
2022/02/19 10:10:46;;;;;;;;;0.00;0.00;;;;;10.06;51.44;101663.25;5060547;28;45318;-69
2022/02/19 10:13:29;;;;;;;;;1.00;1.00;;;;;10.08;51.67;101650.75;5059986;28;45412;-68
2022/02/19 10:15:55;;;;;;;;;0.25;0.25;;;;;10.09;52.21;101644.50;5058844;28;45447;-71
2022/02/19 10:18:31;;;;;;;;;1.00;0.00;;;;;10.13;52.00;101649.78;5058964;28;46079;-72
2022/02/19 10:21:15;;;;;;;;;0.50;0.50;;;;;10.24;51.99;101656.72;5059823;28;45900;-71
2022/02/19 10:23:44;;;;;;;;;0.00;0.00;;;;;10.18;51.84;101639.91;5057919;28;45558;-72
2022/02/19 10:26:11;;;;;;;;;3.00;0.25;;;;;10.26;52.16;101646.91;5056381;28;45397;-74
2022/02/19 10:28:38;;;;;;;;;1.00;1.00;;;;;10.31;51.49;101653.06;5050232;28;48443;-73
2022/02/19 10:31:17;;;;;;;;;0.75;0.25;;;;;10.28;51.39;101637.09;5059969;28;45812;-73
2022/02/19 10:33:44;;;;;;;;;0.25;0.00;;;;;10.36;51.62;101633.41;5054510;28;45241;-74
2022/02/19 10:36:15;;;;;;;;;4.75;0.50;;;;;10.41;51.29;101649.34;5058482;28;45471;-78
2022/02/19 10:38:59;;;;;;;;;0.00;0.00;;;;;10.43;51.58;101647.53;5054998;28;47317;-70
2022/02/19 10:41:32;;;;;;;;;2.25;0.00;;;;;10.46;51.01;101638.59;5056871;28;45522;-70
2022/02/19 10:43:57;;;;;;;;;1.50;0.50;;;;;10.49;50.97;101652.78;5053416;28;45524;-69
2022/02/19 10:46:27;;;;;;;;;1.25;0.25;;;;;10.53;51.48;101648.25;5058640;28;45420;-71
2022/02/19 10:48:52;;;;;;;;;2.00;0.50;;;;;10.59;51.19;101657.94;5057648;28;45574;-70
2022/02/19 10:51:19;;;;;;;;;2.00;0.00;;;;;10.62;50.71;101653.41;5057040;28;45428;-69
2022/02/19 10:53:58;;;;;;;;;0.00;0.00;;;;;10.66;50.33;101654.25;5053960;28;45397;-72
2022/02/19 10:56:25;;;;;;;;;1.00;1.00;;;;;10.67;50.37;101640.00;5059248;28;45397;-69
2022/02/19 10:59:03;;;;;;;;;1.75;0.00;;;;;10.72;50.99;101638.13;5056471;28;45288;-74
2022/02/19 11:01:40;;;;;;;;;1.00;1.00;;;;;10.65;50.35;101618.66;5051506;28;45552;-75
2022/02/19 11:04:07;;;;;;;;;1.00;1.00;;;;;10.77;50.81;101630.91;5052153;28;45377;-74
2022/02/19 11:06:33;;;;;;;;;0.50;0.50;;;;;10.67;50.51;101616.84;5054423;28;45355;-78
2022/02/19 11:09:01;;;;;;;;;3.75;1.00;;;;;10.77;50.61;101633.56;5060568;28;46554;-74
2022/02/19 11:11:27;;;;;;;;;0.00;0.00;;;;;10.81;50.44;101635.28;5061863;28;45385;-74
2022/02/19 11:13:54;;;;;;;;;1.50;0.00;;;;;10.83;50.26;101636.13;5056061;28;45486;-74
2022/02/19 11:16:20;;;;;;;;;1.00;1.00;;;;;10.90;50.15;101640.44;5059164;28;45471;-75
2022/02/19 11:18:46;;;;;;;;;2.50;1.00;;;;;10.82;50.49;101621.00;5054966;28;47234;-76
2022/02/19 11:21:12;;;;;;;;;1.50;0.00;;;;;10.88;49.73;101630.72;5055241;28;45483;-76
2022/02/19 11:23:40;;;;;;;;;1.00;1.00;;;;;10.82;49.53;101590.75;5059668;27;45417;-75
2022/02/19 11:26:08;;;;;;;;;1.00;1.00;;;;;10.98;49.19;101618.06;5059665;28;45425;-77
2022/02/19 11:28:36;;;;;;;;;2.00;0.00;;;;;11.02;49.64;101611.72;5083636;27;46644;-76
2022/02/19 11:31:05;;;;;;;;;0.00;0.00;;;;;11.09;49.18;101614.25;5057008;28;45362;-77
2022/02/19 11:33:32;;;;;;;;;0.00;0.00;;;;;11.09;49.59;101603.56;5045403;28;45565;-76